createdAt,value
2023-01-04T00:01:35.623Z,2.85
2023-01-04T00:04:02.542Z,2.22
2023-01-04T00:06:29.420Z,2.05
2023-01-04T00:08:56.241Z,2.30
2023-01-04T00:11:24.026Z,2.33
2023-01-04T00:13:56.334Z,2.45
2023-01-04T00:16:25.349Z,2.40
2023-01-04T00:18:53.556Z,2.53
2023-01-04T00:21:28.935Z,2.25
2023-01-04T00:23:58.571Z,2.85
2023-01-04T00:26:34.040Z,2.25
2023-01-04T00:29:03.530Z,2.13
2023-01-04T00:31:31.179Z,2.33
2023-01-04T00:34:00.321Z,2.45
2023-01-04T00:36:28.044Z,2.40
2023-01-04T00:39:08.937Z,2.47
2023-01-04T00:41:58.747Z,2.53
2023-01-04T00:44:26.151Z,2.00
2023-01-04T00:46:53.251Z,2.42
2023-01-04T00:49:20.315Z,2.30
2023-01-04T00:51:47.214Z,2.20
2023-01-04T00:54:15.603Z,1.92
2023-01-04T00:56:42.729Z,2.85
2023-01-04T00:59:12.481Z,2.85
2023-01-04T01:01:40.786Z,2.92
2023-01-04T01:04:09.955Z,2.13
2023-01-04T01:06:46.677Z,1.95
2023-01-04T01:09:13.987Z,2.95
2023-01-04T01:11:41.303Z,2.40
2023-01-04T01:14:12.108Z,2.60
2023-01-04T01:16:54.433Z,3.53
2023-01-04T01:19:23.181Z,2.30
2023-01-04T01:21:49.973Z,2.08
2023-01-04T01:24:19.190Z,1.95
2023-01-04T01:26:46.482Z,2.25
2023-01-04T01:29:13.416Z,2.20
2023-01-04T01:31:41.255Z,2.38
2023-01-04T01:34:08.858Z,2.22
2023-01-04T01:36:36.427Z,3.88
2023-01-04T01:39:03.510Z,2.22
2023-01-04T01:41:39.605Z,2.65
2023-01-04T01:44:46.846Z,2.13
2023-01-04T01:47:21.344Z,3.33
2023-01-04T01:49:51.725Z,2.28
2023-01-04T01:52:25.178Z,4.00
2023-01-04T01:55:00.173Z,3.47
2023-01-04T01:57:31.609Z,3.75
2023-01-04T02:00:02.210Z,3.03
2023-01-04T02:02:29.674Z,2.38
2023-01-04T02:04:58.676Z,2.47
2023-01-04T02:07:28.312Z,2.83
2023-01-04T02:09:56.360Z,3.30
2023-01-04T02:12:23.225Z,2.53
2023-01-04T02:14:51.596Z,2.80
2023-01-04T02:17:35.597Z,3.08
2023-01-04T02:20:37.824Z,4.30
2023-01-04T02:23:28.322Z,3.17
2023-01-04T02:26:27.329Z,2.53
2023-01-04T02:29:00.113Z,3.35
2023-01-04T02:31:40.820Z,3.10
2023-01-04T02:34:10.721Z,3.22
2023-01-04T02:36:46.674Z,3.15
2023-01-04T02:39:14.014Z,3.22
2023-01-04T02:41:55.615Z,2.90
2023-01-04T02:44:53.923Z,3.28
2023-01-04T02:47:40.633Z,2.60
2023-01-04T02:50:52.832Z,2.83
2023-01-04T02:53:37.005Z,3.05
2023-01-04T02:56:35.564Z,3.00
2023-01-04T02:59:12.048Z,2.58
2023-01-04T03:02:22.165Z,2.22
2023-01-04T03:05:38.532Z,2.47
2023-01-04T03:08:13.745Z,2.92
2023-01-04T03:11:02.333Z,2.78
2023-01-04T03:13:37.635Z,3.08
2023-01-04T03:16:18.629Z,2.25
2023-01-04T03:18:49.633Z,2.83
2023-01-04T03:21:18.364Z,2.40
2023-01-04T03:24:06.523Z,2.45
2023-01-04T03:27:03.401Z,2.50
2023-01-04T03:29:58.034Z,2.53
2023-01-04T03:33:04.251Z,3.10
2023-01-04T03:35:48.503Z,3.35
2023-01-04T03:38:52.425Z,2.92
2023-01-04T03:42:10.281Z,3.05
2023-01-04T03:45:24.644Z,3.05
2023-01-04T03:48:31.547Z,3.72
2023-01-04T03:51:36.814Z,3.42
2023-01-04T03:54:11.885Z,2.67
2023-01-04T03:56:42.914Z,2.50
2023-01-04T03:59:11.071Z,3.42
2023-01-04T04:01:38.734Z,3.03
2023-01-04T04:04:24.272Z,3.10
2023-01-04T04:07:09.655Z,2.83
2023-01-04T04:09:36.479Z,3.00
2023-01-04T04:12:03.384Z,3.85
2023-01-04T04:14:30.247Z,3.60
2023-01-04T04:16:57.104Z,3.53
2023-01-04T04:19:23.953Z,3.22
2023-01-04T04:21:50.732Z,2.45
2023-01-04T04:24:25.533Z,3.08
2023-01-04T04:26:54.519Z,2.53
2023-01-04T04:29:22.759Z,2.97
2023-01-04T04:31:49.949Z,2.90
2023-01-04T04:34:16.983Z,2.70
2023-01-04T04:36:43.979Z,2.92
2023-01-04T04:39:11.991Z,2.88
2023-01-04T04:41:39.750Z,3.25
2023-01-04T04:44:11.739Z,3.30
2023-01-04T04:46:38.978Z,2.83
2023-01-04T04:49:06.252Z,2.53
2023-01-04T04:51:33.638Z,2.80
2023-01-04T04:54:00.491Z,2.67
2023-01-04T04:56:27.312Z,2.50
2023-01-04T04:58:54.437Z,2.75
2023-01-04T05:01:21.502Z,2.90
2023-01-04T05:03:48.629Z,3.35
2023-01-04T05:06:15.467Z,3.25
2023-01-04T05:08:42.286Z,3.58
2023-01-04T05:11:11.366Z,3.10
2023-01-04T05:13:38.318Z,3.58
2023-01-04T05:16:06.500Z,3.13
2023-01-04T05:18:33.489Z,3.53
2023-01-04T05:21:00.903Z,3.60
2023-01-04T05:23:27.719Z,3.67
2023-01-04T05:25:59.076Z,2.67
2023-01-04T05:28:26.072Z,4.30
2023-01-04T05:30:55.479Z,3.75
2023-01-04T05:33:40.387Z,4.38
2023-01-04T05:36:07.344Z,4.30
2023-01-04T05:38:34.977Z,4.47
2023-01-04T05:41:01.867Z,4.43
2023-01-04T05:43:28.973Z,4.72
2023-01-04T05:45:56.846Z,4.57
2023-01-04T05:48:29.099Z,5.20
2023-01-04T05:50:55.893Z,5.82
2023-01-04T05:53:22.746Z,5.22
2023-01-04T05:55:49.572Z,5.70
2023-01-04T05:58:16.530Z,7.18
2023-01-04T06:00:45.525Z,6.32
2023-01-04T06:03:12.360Z,6.85
2023-01-04T06:05:39.888Z,7.10
2023-01-04T06:08:06.805Z,7.20
2023-01-04T06:10:33.711Z,7.40
2023-01-04T06:13:00.580Z,6.25
2023-01-04T06:15:27.451Z,6.85
2023-01-04T06:17:54.384Z,7.82
2023-01-04T06:20:21.250Z,7.22
2023-01-04T06:22:48.197Z,6.68
2023-01-04T06:25:15.066Z,6.95
2023-01-04T06:27:41.962Z,6.63
2023-01-04T06:30:09.729Z,6.07
2023-01-04T06:32:36.585Z,7.07
2023-01-04T06:35:04.652Z,5.85
2023-01-04T06:37:31.484Z,5.75
2023-01-04T06:39:58.296Z,6.50
2023-01-04T06:42:43.443Z,6.38
2023-01-04T06:45:11.046Z,6.07
2023-01-04T06:47:39.679Z,6.28
2023-01-04T06:50:06.751Z,5.60
2023-01-04T06:52:33.962Z,4.90
2023-01-04T06:55:00.775Z,5.72
2023-01-04T06:57:28.038Z,4.68
2023-01-04T06:59:54.860Z,4.18
2023-01-04T07:02:21.971Z,4.72
2023-01-04T07:04:48.969Z,4.40
2023-01-04T07:07:15.886Z,3.97
2023-01-04T07:09:43.030Z,4.35
2023-01-04T07:12:09.866Z,4.22
2023-01-04T07:14:36.683Z,3.67
2023-01-04T07:17:03.538Z,3.50
2023-01-04T07:19:30.372Z,4.07
2023-01-04T07:21:58.803Z,3.88
2023-01-04T07:24:30.091Z,3.47
2023-01-04T07:26:59.411Z,3.85
2023-01-04T07:29:26.355Z,4.30
2023-01-04T07:31:53.513Z,3.90
2023-01-04T07:34:22.790Z,3.72
2023-01-04T07:36:50.338Z,3.78
2023-01-04T07:39:19.167Z,3.92
2023-01-04T07:41:46.810Z,4.15
2023-01-04T07:44:14.558Z,3.53
2023-01-04T07:46:42.735Z,2.85
2023-01-04T07:49:18.490Z,3.38
2023-01-04T07:51:48.029Z,3.28
2023-01-04T07:54:16.451Z,3.40
2023-01-04T07:56:44.459Z,3.60
2023-01-04T07:59:13.474Z,3.38
2023-01-04T08:01:41.556Z,4.10
2023-01-04T08:04:10.368Z,4.70
2023-01-04T08:06:38.556Z,3.85
2023-01-04T08:09:06.537Z,4.22
2023-01-04T08:11:33.821Z,4.00
2023-01-04T08:14:00.612Z,4.43
2023-01-04T08:16:36.281Z,4.13
2023-01-04T08:19:06.669Z,4.75
2023-01-04T08:21:35.306Z,3.50
2023-01-04T08:24:02.839Z,3.92
2023-01-04T08:26:30.049Z,4.18
2023-01-04T08:28:57.401Z,4.22
2023-01-04T08:31:27.539Z,4.20
2023-01-04T08:33:55.390Z,4.78
2023-01-04T08:36:27.561Z,4.50
2023-01-04T08:39:05.152Z,4.45
2023-01-04T08:42:04.290Z,3.80
2023-01-04T08:44:35.180Z,3.97
2023-01-04T08:47:02.573Z,4.55
2023-01-04T08:49:29.668Z,4.93
2023-01-04T08:51:56.504Z,4.68
2023-01-04T08:54:23.528Z,5.15
2023-01-04T08:56:50.420Z,4.65
2023-01-04T08:59:17.559Z,5.07
2023-01-04T09:01:46.115Z,5.05
2023-01-04T09:04:13.358Z,5.32
2023-01-04T09:06:40.675Z,4.18
2023-01-04T09:09:07.639Z,5.38
2023-01-04T09:11:35.392Z,4.78
2023-01-04T09:14:07.739Z,4.95
2023-01-04T09:19:03.881Z,4.43
2023-01-04T09:21:30.842Z,5.15
2023-01-04T09:23:58.973Z,5.53
2023-01-04T09:26:26.279Z,5.80
2023-01-04T09:28:55.283Z,5.15
2023-01-04T09:31:25.024Z,4.93
2023-01-04T09:36:39.529Z,4.75
2023-01-04T09:39:06.883Z,3.58
2023-01-04T09:41:43.582Z,3.30
2023-01-04T09:44:10.389Z,3.22
2023-01-04T09:47:11.228Z,3.47
2023-01-04T09:49:47.635Z,3.60
2023-01-04T09:52:23.998Z,3.40
2023-01-04T09:55:04.977Z,2.90
2023-01-04T09:58:16.491Z,2.55
2023-01-04T10:00:51.509Z,2.85
2023-01-04T10:03:25.996Z,2.70
2023-01-04T10:05:56.746Z,2.20
2023-01-04T10:08:24.092Z,2.80
2023-01-04T10:11:22.315Z,2.30
2023-01-04T10:14:14.056Z,1.95
2023-01-04T10:17:14.868Z,2.17
2023-01-04T10:21:17.727Z,2.40
2023-01-04T10:22:57.633Z,2.30
2023-01-04T10:25:27.739Z,2.50
2023-01-04T10:28:10.810Z,2.22
2023-01-04T10:30:54.456Z,2.65
2023-01-04T10:33:33.269Z,1.95
2023-01-04T10:36:00.610Z,2.33
2023-01-04T10:38:32.979Z,2.58
2023-01-04T10:41:13.736Z,2.17
2023-01-04T10:44:12.153Z,1.98
2023-01-04T10:46:49.126Z,2.40
2023-01-04T10:49:23.384Z,2.58
2023-01-04T10:52:07.649Z,2.08
2023-01-04T10:54:47.957Z,2.00
2023-01-04T10:57:27.473Z,2.20
2023-01-04T11:00:05.534Z,2.10
2023-01-04T11:03:02.116Z,2.30
2023-01-04T11:05:43.174Z,2.60
2023-01-04T11:08:21.115Z,2.90
2023-01-04T11:10:53.242Z,2.88
2023-01-04T11:13:20.381Z,2.97
2023-01-04T11:15:47.980Z,3.30
2023-01-04T11:18:17.057Z,2.88
2023-01-04T11:20:44.048Z,3.22
2023-01-04T11:23:15.517Z,2.85
2023-01-04T11:25:55.899Z,2.50
2023-01-04T11:28:47.341Z,2.53
2023-01-04T11:31:29.441Z,2.20
2023-01-04T11:34:04.214Z,3.22
2023-01-04T11:36:36.191Z,2.40
2023-01-04T11:39:17.602Z,2.75
2023-01-04T11:42:03.212Z,2.83
2023-01-04T11:44:32.860Z,2.33
2023-01-04T11:47:20.705Z,3.05
2023-01-04T11:49:48.494Z,3.45
2023-01-04T11:52:36.986Z,3.55
2023-01-04T11:55:16.102Z,5.00
2023-01-04T11:57:43.187Z,4.45
2023-01-04T12:00:19.658Z,3.70
2023-01-04T12:03:02.793Z,3.75
2023-01-04T12:07:59.053Z,3.50
2023-01-04T12:10:27.948Z,4.40
2023-01-04T12:12:56.468Z,3.97
2023-01-04T12:15:55.821Z,3.72
2023-01-04T12:18:35.092Z,3.53
2023-01-04T12:21:03.156Z,3.38
2023-01-04T12:23:30.550Z,3.25
2023-01-04T12:25:57.731Z,3.22
2023-01-04T12:28:36.303Z,3.33
2023-01-04T12:31:21.945Z,2.92
2023-01-04T12:33:54.248Z,2.38
2023-01-04T12:36:39.293Z,1.70
2023-01-04T12:39:06.168Z,1.70
2023-01-04T12:41:35.672Z,1.90
2023-01-04T12:44:04.075Z,1.10
2023-01-04T12:46:49.472Z,0.82
2023-01-04T12:49:39.576Z,0.90
2023-01-04T12:52:31.955Z,0.82
2023-01-04T12:55:00.542Z,0.80
2023-01-04T12:57:38.605Z,0.85
2023-01-04T13:00:07.278Z,0.93
2023-01-04T13:02:47.817Z,0.73
2023-01-04T13:08:11.164Z,0.70
2023-01-04T13:10:42.222Z,0.95
2023-01-04T13:13:21.390Z,0.98
2023-01-04T13:16:17.291Z,1.05
2023-01-04T13:18:51.184Z,1.52
2023-01-04T13:21:24.574Z,3.53
2023-01-04T13:23:54.213Z,1.67
2023-01-04T13:26:37.198Z,1.77
2023-01-04T13:29:22.268Z,2.10
2023-01-04T13:32:02.650Z,2.30
2023-01-04T13:34:31.564Z,2.00
2023-01-04T13:37:10.902Z,2.47
2023-01-04T13:39:50.423Z,2.75
2023-01-04T13:42:25.165Z,2.42
2023-01-04T13:45:19.733Z,2.03
2023-01-04T13:47:50.841Z,2.50
2023-01-04T13:50:35.505Z,2.58
2023-01-04T13:53:08.127Z,2.45
2023-01-04T13:58:17.087Z,3.78
2023-01-04T14:00:55.984Z,3.17
2023-01-04T14:03:32.174Z,2.70
2023-01-04T14:06:15.618Z,2.80
2023-01-04T14:11:48.698Z,4.07
2023-01-04T14:14:23.118Z,4.05
2023-01-04T14:16:51.181Z,3.25
2023-01-04T14:19:41.064Z,3.38
2023-01-04T14:22:25.493Z,3.28
2023-01-04T14:25:10.846Z,4.45
2023-01-04T14:27:42.926Z,3.47
2023-01-04T14:30:18.840Z,3.95
2023-01-04T14:32:59.422Z,3.47
2023-01-04T14:35:28.034Z,4.25
2023-01-04T14:37:55.975Z,4.80
2023-01-04T14:40:31.679Z,3.17
2023-01-04T14:42:58.762Z,3.58
2023-01-04T14:45:28.785Z,4.40
2023-01-04T14:47:55.564Z,3.97
2023-01-04T14:50:22.368Z,3.75
2023-01-04T14:52:56.066Z,4.18
2023-01-04T14:55:24.746Z,3.13
2023-01-04T14:57:51.656Z,3.75
2023-01-04T15:00:19.946Z,3.47
2023-01-04T15:02:51.114Z,3.95
2023-01-04T15:05:26.005Z,4.22
2023-01-04T15:08:04.485Z,3.40
2023-01-04T15:10:31.375Z,2.85
2023-01-04T15:13:00.841Z,4.00
2023-01-04T15:15:27.734Z,4.15
2023-01-04T15:17:54.616Z,4.85
2023-01-04T15:20:21.865Z,2.88
2023-01-04T15:22:48.706Z,3.85
2023-01-04T15:25:15.616Z,4.38
2023-01-04T15:27:43.135Z,3.75
2023-01-04T15:30:11.996Z,3.47
2023-01-04T15:32:39.264Z,3.95
2023-01-04T15:35:06.560Z,4.22
2023-01-04T15:37:33.545Z,3.20
2023-01-04T15:40:03.122Z,3.38
2023-01-04T15:42:49.569Z,3.45
2023-01-04T15:45:16.729Z,3.90
2023-01-04T15:47:43.976Z,2.65
2023-01-04T15:50:10.812Z,3.80
2023-01-04T15:52:37.989Z,4.68
2023-01-04T15:55:09.526Z,3.53
2023-01-04T15:57:41.759Z,4.68
2023-01-04T16:00:11.532Z,3.20
2023-01-04T16:02:38.619Z,4.25
2023-01-04T16:05:06.360Z,3.65
2023-01-04T16:07:36.591Z,3.47
2023-01-04T16:10:44.889Z,6.00
2023-01-04T16:13:19.902Z,4.35
2023-01-04T16:15:54.503Z,5.40
2023-01-04T16:18:44.601Z,4.22
2023-01-04T16:21:21.908Z,3.95
2023-01-04T16:24:03.816Z,3.55
2023-01-04T16:26:34.143Z,3.20
2023-01-04T16:31:54.310Z,3.30
2023-01-04T16:34:21.441Z,4.32
2023-01-04T16:37:16.992Z,3.95
2023-01-04T16:42:30.958Z,3.15
2023-01-04T16:45:13.466Z,3.10
2023-01-04T16:47:47.874Z,3.70
2023-01-04T16:50:14.847Z,4.30
2023-01-04T16:53:05.696Z,3.95
2023-01-04T16:55:32.619Z,3.50
2023-01-04T16:57:59.437Z,4.80
2023-01-04T17:00:26.272Z,3.58
2023-01-04T17:02:53.244Z,3.22
2023-01-04T17:05:20.198Z,3.20
2023-01-04T17:07:46.991Z,3.80
2023-01-04T17:10:43.246Z,6.00
2023-01-04T17:13:10.163Z,2.92
2023-01-04T17:16:02.284Z,3.75
2023-01-04T17:18:29.499Z,4.13
2023-01-04T17:21:16.882Z,5.18
2023-01-04T17:23:48.008Z,3.95
2023-01-04T17:26:19.992Z,4.20
2023-01-04T17:28:47.156Z,5.20
2023-01-04T17:31:16.625Z,4.60
2023-01-04T17:33:43.714Z,4.15
2023-01-04T17:36:13.321Z,4.20
2023-01-04T17:38:40.724Z,3.50
2023-01-04T17:41:16.908Z,3.90
2023-01-04T17:43:45.673Z,4.03
2023-01-04T17:46:22.826Z,4.88
2023-01-04T17:49:21.756Z,3.65
2023-01-04T17:51:45.278Z,4.40
2023-01-04T17:54:14.071Z,5.03
2023-01-04T17:56:40.961Z,3.70
2023-01-04T17:59:07.938Z,4.85
2023-01-04T18:04:46.568Z,5.63
2023-01-04T18:07:13.625Z,6.28
2023-01-04T18:09:40.585Z,5.50
2023-01-04T18:12:07.467Z,5.32
2023-01-04T18:14:34.308Z,4.55
2023-01-04T18:17:01.235Z,5.03
2023-01-04T18:19:30.509Z,4.43
2023-01-04T18:21:58.372Z,5.90
2023-01-04T18:24:41.724Z,4.43
2023-01-04T18:29:48.689Z,5.65
2023-01-04T18:32:15.590Z,4.80
2023-01-04T18:34:45.062Z,4.53
2023-01-04T18:37:11.994Z,6.05
2023-01-04T18:39:38.869Z,5.25
2023-01-04T18:42:05.682Z,6.40
2023-01-04T18:44:34.460Z,5.47
2023-01-04T18:47:03.148Z,4.72
2023-01-04T18:49:30.010Z,4.85
2023-01-04T18:51:57.059Z,4.63
2023-01-04T18:54:23.931Z,5.35
2023-01-04T18:56:57.011Z,4.32
2023-01-04T18:59:25.925Z,5.32
2023-01-04T19:01:52.989Z,5.45
2023-01-04T19:04:19.957Z,5.45
2023-01-04T19:06:46.988Z,6.35
2023-01-04T19:12:05.765Z,6.10
2023-01-04T19:14:32.605Z,6.55
2023-01-04T19:16:59.549Z,5.22
2023-01-04T19:19:26.454Z,5.13
2023-01-04T19:21:53.873Z,6.05
2023-01-04T19:24:20.862Z,5.13
2023-01-04T19:26:47.745Z,4.30
2023-01-04T19:29:14.856Z,4.40
2023-01-04T19:32:07.183Z,6.25
2023-01-04T19:34:34.093Z,6.80
2023-01-04T19:37:07.119Z,5.47
2023-01-04T19:39:33.943Z,6.28
2023-01-04T19:42:01.110Z,5.53
2023-01-04T19:44:28.012Z,6.68
2023-01-04T19:47:03.762Z,6.75
2023-01-04T19:49:33.324Z,5.80
2023-01-04T19:52:00.215Z,5.63
2023-01-04T19:54:27.081Z,7.45
2023-01-04T19:56:54.260Z,5.45
2023-01-04T19:59:21.443Z,5.63
2023-01-04T20:01:48.860Z,5.53
2023-01-04T20:04:15.848Z,5.75
2023-01-04T20:06:42.833Z,6.28
2023-01-04T20:09:09.715Z,6.63
2023-01-04T20:11:36.681Z,6.07
2023-01-04T20:14:03.523Z,5.97
2023-01-04T20:16:30.590Z,5.38
2023-01-04T20:18:58.098Z,5.70
2023-01-04T20:21:25.303Z,7.18
2023-01-04T20:23:53.171Z,5.78
2023-01-04T20:26:42.163Z,7.03
2023-01-04T20:29:09.219Z,7.40
2023-01-04T20:31:45.716Z,5.53
2023-01-04T20:34:13.643Z,5.82
2023-01-04T20:36:40.601Z,6.35
2023-01-04T20:39:07.704Z,6.93
2023-01-04T20:41:34.714Z,7.15
2023-01-04T20:44:02.783Z,6.60
2023-01-04T20:46:33.056Z,6.90
2023-01-04T20:49:01.329Z,7.03
2023-01-04T20:51:45.537Z,6.55
2023-01-04T20:54:13.718Z,7.88
2023-01-04T20:56:41.103Z,7.90
2023-01-04T20:59:08.060Z,5.53
2023-01-04T21:01:37.314Z,6.28
2023-01-04T21:04:10.504Z,6.53
2023-01-04T21:06:40.795Z,5.53
2023-01-04T21:09:10.524Z,6.07
2023-01-04T21:11:43.779Z,5.40
2023-01-04T21:16:42.071Z,7.85
2023-01-04T21:19:23.070Z,6.13
2023-01-04T21:21:49.950Z,7.25
2023-01-04T21:24:43.866Z,6.85
2023-01-04T21:27:10.713Z,7.10
2023-01-04T21:29:37.642Z,6.75
2023-01-04T21:32:05.017Z,8.10
2023-01-04T21:34:33.494Z,7.78
2023-01-04T21:37:00.454Z,7.07
2023-01-04T21:39:27.514Z,7.22
2023-01-04T21:41:54.589Z,7.72
2023-01-04T21:44:21.494Z,5.80
2023-01-04T21:46:49.085Z,6.18
2023-01-04T21:49:16.014Z,7.32
2023-01-04T21:51:42.951Z,8.68
2023-01-04T21:54:09.772Z,6.53
2023-01-04T21:56:36.650Z,6.82
2023-01-04T21:59:05.482Z,7.65
2023-01-04T22:01:38.306Z,6.88
2023-01-04T22:04:09.269Z,6.95
2023-01-04T22:06:38.699Z,6.03
2023-01-04T22:09:07.096Z,7.25
2023-01-04T22:11:34.008Z,7.55
2023-01-04T22:14:00.810Z,6.32
2023-01-04T22:16:29.375Z,6.32
2023-01-04T22:18:56.374Z,5.82
2023-01-04T22:21:26.761Z,5.90
2023-01-04T22:23:54.603Z,7.00
2023-01-04T22:26:21.444Z,6.47
2023-01-04T22:28:48.329Z,5.85
2023-01-04T22:31:15.855Z,4.80
2023-01-04T22:33:43.094Z,5.90
2023-01-04T22:36:21.719Z,5.47
2023-01-04T22:38:51.321Z,5.55
2023-01-04T22:41:21.282Z,6.72
2023-01-04T22:43:53.549Z,8.35
2023-01-04T22:46:20.431Z,8.50
2023-01-04T22:48:47.353Z,6.03
2023-01-04T22:51:16.455Z,7.57
2023-01-04T22:53:43.983Z,6.47
2023-01-04T22:56:22.725Z,8.18
2023-01-04T22:58:54.616Z,6.43
2023-01-04T23:01:24.533Z,5.55
2023-01-04T23:03:54.661Z,6.97
2023-01-04T23:06:22.358Z,7.40
2023-01-04T23:08:58.483Z,8.20
2023-01-04T23:11:25.946Z,6.07
2023-01-04T23:13:52.974Z,6.72
2023-01-04T23:16:22.705Z,6.80
2023-01-04T23:18:51.924Z,6.40
2023-01-04T23:21:19.194Z,5.35
2023-01-04T23:23:49.146Z,7.50
2023-01-04T23:26:29.568Z,6.68
2023-01-04T23:28:56.843Z,5.60
2023-01-04T23:31:26.021Z,6.15
2023-01-04T23:33:55.237Z,5.60
2023-01-04T23:36:31.877Z,6.13
2023-01-04T23:39:00.640Z,6.63
2023-01-04T23:41:46.725Z,6.45
2023-01-04T23:44:19.431Z,6.00
2023-01-04T23:46:51.878Z,6.63
2023-01-04T23:49:18.731Z,7.30
2023-01-04T23:51:45.857Z,6.32
2023-01-04T23:54:12.789Z,6.32
2023-01-04T23:56:40.114Z,6.07
2023-01-04T23:59:07.979Z,7.18
